sensor_id;sensor_type;location;lat;lon;timestamp;P1;durP1;ratioP1;P2;durP2;ratioP2
66830;SDS011;53739;44.224;22.528;2023-03-01T00:01:52;122.45;;;66.13;;
66830;SDS011;53739;44.224;22.528;2023-03-01T00:04:18;133.40;;;68.05;;
66830;SDS011;53739;44.224;22.528;2023-03-01T00:06:44;127.93;;;65.40;;
66830;SDS011;53739;44.224;22.528;2023-03-01T00:09:13;124.82;;;62.90;;
66830;SDS011;53739;44.224;22.528;2023-03-01T00:11:40;137.00;;;71.82;;
66830;SDS011;53739;44.224;22.528;2023-03-01T00:14:06;125.60;;;69.32;;
66830;SDS011;53739;44.224;22.528;2023-03-01T00:16:33;111.88;;;61.28;;
66830;SDS011;53739;44.224;22.528;2023-03-01T00:19:00;110.45;;;57.55;;
66830;SDS011;53739;44.224;22.528;2023-03-01T00:21:26;98.63;;;54.17;;
66830;SDS011;53739;44.224;22.528;2023-03-01T00:23:53;95.45;;;48.70;;
66830;SDS011;53739;44.224;22.528;2023-03-01T00:26:19;106.80;;;53.83;;
66830;SDS011;53739;44.224;22.528;2023-03-01T00:28:46;102.50;;;53.42;;
66830;SDS011;53739;44.224;22.528;2023-03-01T00:31:14;107.72;;;56.78;;
66830;SDS011;53739;44.224;22.528;2023-03-01T00:33:41;110.35;;;56.65;;
66830;SDS011;53739;44.224;22.528;2023-03-01T00:36:08;110.60;;;57.17;;
66830;SDS011;53739;44.224;22.528;2023-03-01T00:38:37;109.15;;;56.22;;
66830;SDS011;53739;44.224;22.528;2023-03-01T00:41:05;96.90;;;53.10;;
66830;SDS011;53739;44.224;22.528;2023-03-01T00:43:35;100.78;;;53.30;;
66830;SDS011;53739;44.224;22.528;2023-03-01T00:46:04;112.43;;;55.55;;
66830;SDS011;53739;44.224;22.528;2023-03-01T00:48:32;126.07;;;63.42;;
66830;SDS011;53739;44.224;22.528;2023-03-01T00:51:03;118.60;;;58.50;;
66830;SDS011;53739;44.224;22.528;2023-03-01T00:53:33;118.25;;;61.30;;
66830;SDS011;53739;44.224;22.528;2023-03-01T00:56:00;117.10;;;56.03;;
66830;SDS011;53739;44.224;22.528;2023-03-01T00:58:26;111.45;;;57.42;;
66830;SDS011;53739;44.224;22.528;2023-03-01T01:00:52;106.00;;;55.80;;
66830;SDS011;53739;44.224;22.528;2023-03-01T01:03:18;121.40;;;61.28;;
66830;SDS011;53739;44.224;22.528;2023-03-01T01:05:44;129.27;;;61.60;;
66830;SDS011;53739;44.224;22.528;2023-03-01T01:08:10;136.15;;;65.68;;
66830;SDS011;53739;44.224;22.528;2023-03-01T01:10:36;124.82;;;64.60;;
66830;SDS011;53739;44.224;22.528;2023-03-01T01:13:02;122.68;;;61.17;;
66830;SDS011;53739;44.224;22.528;2023-03-01T01:15:29;155.85;;;73.50;;
66830;SDS011;53739;44.224;22.528;2023-03-01T01:17:58;128.30;;;62.22;;
66830;SDS011;53739;44.224;22.528;2023-03-01T01:20:24;117.90;;;58.78;;
66830;SDS011;53739;44.224;22.528;2023-03-01T01:22:49;131.40;;;66.10;;
66830;SDS011;53739;44.224;22.528;2023-03-01T01:25:16;135.02;;;66.10;;
66830;SDS011;53739;44.224;22.528;2023-03-01T01:27:42;127.90;;;61.80;;
66830;SDS011;53739;44.224;22.528;2023-03-01T01:30:08;124.07;;;59.42;;
66830;SDS011;53739;44.224;22.528;2023-03-01T01:32:34;118.50;;;56.30;;
66830;SDS011;53739;44.224;22.528;2023-03-01T01:35:01;115.10;;;56.38;;
66830;SDS011;53739;44.224;22.528;2023-03-01T01:37:27;133.50;;;65.57;;
66830;SDS011;53739;44.224;22.528;2023-03-01T01:39:59;121.50;;;63.20;;
66830;SDS011;53739;44.224;22.528;2023-03-01T01:42:26;127.45;;;60.38;;
66830;SDS011;53739;44.224;22.528;2023-03-01T01:47:49;123.85;;;58.92;;
66830;SDS011;53739;44.224;22.528;2023-03-01T01:50:16;129.75;;;60.97;;
66830;SDS011;53739;44.224;22.528;2023-03-01T01:52:43;125.43;;;59.63;;
66830;SDS011;53739;44.224;22.528;2023-03-01T01:55:17;165.65;;;77.40;;
66830;SDS011;53739;44.224;22.528;2023-03-01T01:57:53;149.38;;;68.32;;
66830;SDS011;53739;44.224;22.528;2023-03-01T02:00:26;171.05;;;74.15;;
66830;SDS011;53739;44.224;22.528;2023-03-01T02:02:57;196.82;;;86.32;;
66830;SDS011;53739;44.224;22.528;2023-03-01T02:05:35;159.45;;;74.13;;
66830;SDS011;53739;44.224;22.528;2023-03-01T02:08:05;163.68;;;75.97;;
66830;SDS011;53739;44.224;22.528;2023-03-01T02:10:32;154.15;;;70.50;;
66830;SDS011;53739;44.224;22.528;2023-03-01T02:12:59;136.85;;;65.07;;
66830;SDS011;53739;44.224;22.528;2023-03-01T02:15:26;161.00;;;75.43;;
66830;SDS011;53739;44.224;22.528;2023-03-01T02:17:56;157.32;;;73.18;;
66830;SDS011;53739;44.224;22.528;2023-03-01T02:23:16;137.00;;;62.28;;
66830;SDS011;53739;44.224;22.528;2023-03-01T02:28:33;129.13;;;63.08;;
66830;SDS011;53739;44.224;22.528;2023-03-01T02:31:04;108.07;;;52.00;;
66830;SDS011;53739;44.224;22.528;2023-03-01T02:33:51;104.72;;;52.13;;
66830;SDS011;53739;44.224;22.528;2023-03-01T02:36:19;104.05;;;52.42;;
66830;SDS011;53739;44.224;22.528;2023-03-01T02:38:51;111.97;;;53.53;;
66830;SDS011;53739;44.224;22.528;2023-03-01T02:41:20;113.97;;;56.88;;
66830;SDS011;53739;44.224;22.528;2023-03-01T02:43:46;102.05;;;51.65;;
66830;SDS011;53739;44.224;22.528;2023-03-01T02:46:20;96.63;;;50.40;;
66830;SDS011;53739;44.224;22.528;2023-03-01T02:48:49;100.90;;;53.00;;
66830;SDS011;53739;44.224;22.528;2023-03-01T02:56:58;110.78;;;58.05;;
66830;SDS011;53739;44.224;22.528;2023-03-01T02:59:27;98.85;;;53.22;;
66830;SDS011;53739;44.224;22.528;2023-03-01T03:02:04;96.93;;;47.97;;
66830;SDS011;53739;44.224;22.528;2023-03-01T03:04:31;104.78;;;52.33;;
66830;SDS011;53739;44.224;22.528;2023-03-01T03:06:56;99.22;;;50.92;;
66830;SDS011;53739;44.224;22.528;2023-03-01T03:09:22;103.72;;;51.50;;
66830;SDS011;53739;44.224;22.528;2023-03-01T03:11:48;115.38;;;61.25;;
66830;SDS011;53739;44.224;22.528;2023-03-01T03:14:15;98.63;;;50.28;;
66830;SDS011;53739;44.224;22.528;2023-03-01T03:16:42;106.53;;;54.75;;
66830;SDS011;53739;44.224;22.528;2023-03-01T03:19:09;98.57;;;49.42;;
66830;SDS011;53739;44.224;22.528;2023-03-01T03:21:36;89.53;;;45.90;;
66830;SDS011;53739;44.224;22.528;2023-03-01T03:24:02;91.55;;;44.85;;
66830;SDS011;53739;44.224;22.528;2023-03-01T03:26:29;98.50;;;48.20;;
66830;SDS011;53739;44.224;22.528;2023-03-01T03:28:54;93.72;;;47.80;;
66830;SDS011;53739;44.224;22.528;2023-03-01T03:31:21;100.60;;;48.95;;
66830;SDS011;53739;44.224;22.528;2023-03-01T03:33:47;93.63;;;45.40;;
66830;SDS011;53739;44.224;22.528;2023-03-01T03:36:16;88.15;;;46.10;;
66830;SDS011;53739;44.224;22.528;2023-03-01T03:38:44;86.10;;;45.45;;
66830;SDS011;53739;44.224;22.528;2023-03-01T03:41:11;101.00;;;51.47;;
66830;SDS011;53739;44.224;22.528;2023-03-01T03:43:38;93.30;;;45.38;;
66830;SDS011;53739;44.224;22.528;2023-03-01T03:46:05;89.20;;;44.80;;
66830;SDS011;53739;44.224;22.528;2023-03-01T03:48:39;98.57;;;48.75;;
66830;SDS011;53739;44.224;22.528;2023-03-01T03:51:06;79.68;;;41.88;;
66830;SDS011;53739;44.224;22.528;2023-03-01T03:53:35;92.15;;;47.00;;
66830;SDS011;53739;44.224;22.528;2023-03-01T03:56:00;97.72;;;47.40;;
66830;SDS011;53739;44.224;22.528;2023-03-01T03:58:26;89.82;;;46.80;;
66830;SDS011;53739;44.224;22.528;2023-03-01T04:00:53;89.95;;;47.08;;
66830;SDS011;53739;44.224;22.528;2023-03-01T04:03:21;76.75;;;42.35;;
66830;SDS011;53739;44.224;22.528;2023-03-01T04:05:50;89.97;;;43.63;;
66830;SDS011;53739;44.224;22.528;2023-03-01T04:08:17;88.55;;;46.50;;
66830;SDS011;53739;44.224;22.528;2023-03-01T04:10:46;89.72;;;46.53;;
66830;SDS011;53739;44.224;22.528;2023-03-01T04:13:14;92.25;;;44.63;;
66830;SDS011;53739;44.224;22.528;2023-03-01T04:15:42;89.45;;;43.22;;
66830;SDS011;53739;44.224;22.528;2023-03-01T04:18:08;88.18;;;44.55;;
66830;SDS011;53739;44.224;22.528;2023-03-01T04:20:37;91.35;;;47.75;;
66830;SDS011;53739;44.224;22.528;2023-03-01T04:23:08;92.25;;;48.58;;
66830;SDS011;53739;44.224;22.528;2023-03-01T04:25:41;89.15;;;47.25;;
66830;SDS011;53739;44.224;22.528;2023-03-01T04:28:10;92.93;;;47.55;;
66830;SDS011;53739;44.224;22.528;2023-03-01T04:30:36;86.57;;;46.53;;
66830;SDS011;53739;44.224;22.528;2023-03-01T04:33:04;101.32;;;51.00;;
66830;SDS011;53739;44.224;22.528;2023-03-01T04:35:31;87.80;;;47.03;;
66830;SDS011;53739;44.224;22.528;2023-03-01T04:37:57;98.15;;;50.70;;
66830;SDS011;53739;44.224;22.528;2023-03-01T04:40:23;95.95;;;49.10;;
66830;SDS011;53739;44.224;22.528;2023-03-01T04:42:49;101.57;;;47.15;;
66830;SDS011;53739;44.224;22.528;2023-03-01T04:45:15;96.20;;;48.70;;
66830;SDS011;53739;44.224;22.528;2023-03-01T04:47:41;98.32;;;49.67;;
66830;SDS011;53739;44.224;22.528;2023-03-01T04:50:09;90.05;;;47.13;;
66830;SDS011;53739;44.224;22.528;2023-03-01T04:52:36;96.22;;;48.67;;
66830;SDS011;53739;44.224;22.528;2023-03-01T04:55:02;96.78;;;50.00;;
66830;SDS011;53739;44.224;22.528;2023-03-01T04:57:28;93.38;;;45.83;;
66830;SDS011;53739;44.224;22.528;2023-03-01T04:59:54;87.15;;;46.97;;
66830;SDS011;53739;44.224;22.528;2023-03-01T05:02:20;93.20;;;50.88;;
66830;SDS011;53739;44.224;22.528;2023-03-01T05:04:46;94.82;;;48.55;;
66830;SDS011;53739;44.224;22.528;2023-03-01T05:07:12;98.30;;;50.05;;
66830;SDS011;53739;44.224;22.528;2023-03-01T05:09:38;88.47;;;45.90;;
66830;SDS011;53739;44.224;22.528;2023-03-01T05:12:04;94.35;;;48.95;;
66830;SDS011;53739;44.224;22.528;2023-03-01T05:14:30;99.35;;;49.60;;
66830;SDS011;53739;44.224;22.528;2023-03-01T05:16:55;101.15;;;50.63;;
66830;SDS011;53739;44.224;22.528;2023-03-01T05:19:29;86.78;;;45.63;;
66830;SDS011;53739;44.224;22.528;2023-03-01T05:21:56;87.53;;;46.28;;
66830;SDS011;53739;44.224;22.528;2023-03-01T05:24:31;87.30;;;46.70;;
66830;SDS011;53739;44.224;22.528;2023-03-01T05:26:58;84.03;;;44.80;;
66830;SDS011;53739;44.224;22.528;2023-03-01T05:29:25;94.07;;;47.95;;
66830;SDS011;53739;44.224;22.528;2023-03-01T05:34:18;90.85;;;48.25;;
66830;SDS011;53739;44.224;22.528;2023-03-01T05:36:51;97.82;;;48.35;;
66830;SDS011;53739;44.224;22.528;2023-03-01T05:39:21;87.15;;;45.75;;
66830;SDS011;53739;44.224;22.528;2023-03-01T05:41:57;89.60;;;46.80;;
66830;SDS011;53739;44.224;22.528;2023-03-01T05:44:24;91.07;;;46.72;;
66830;SDS011;53739;44.224;22.528;2023-03-01T05:46:51;93.10;;;50.72;;
66830;SDS011;53739;44.224;22.528;2023-03-01T05:49:17;101.90;;;53.40;;
66830;SDS011;53739;44.224;22.528;2023-03-01T05:51:45;105.45;;;54.25;;
66830;SDS011;53739;44.224;22.528;2023-03-01T05:54:13;106.78;;;53.80;;
66830;SDS011;53739;44.224;22.528;2023-03-01T05:56:40;122.10;;;64.95;;
66830;SDS011;53739;44.224;22.528;2023-03-01T05:59:05;126.55;;;62.72;;
66830;SDS011;53739;44.224;22.528;2023-03-01T06:01:32;142.50;;;69.18;;
66830;SDS011;53739;44.224;22.528;2023-03-01T06:03:58;122.95;;;63.83;;
66830;SDS011;53739;44.224;22.528;2023-03-01T06:06:24;129.13;;;66.10;;
66830;SDS011;53739;44.224;22.528;2023-03-01T06:08:50;123.15;;;63.50;;
66830;SDS011;53739;44.224;22.528;2023-03-01T06:11:16;123.40;;;60.53;;
66830;SDS011;53739;44.224;22.528;2023-03-01T06:13:43;122.43;;;63.92;;
66830;SDS011;53739;44.224;22.528;2023-03-01T06:16:09;116.55;;;59.50;;
66830;SDS011;53739;44.224;22.528;2023-03-01T06:18:36;127.97;;;64.80;;
66830;SDS011;53739;44.224;22.528;2023-03-01T06:21:02;116.82;;;58.38;;
66830;SDS011;53739;44.224;22.528;2023-03-01T06:23:28;132.82;;;63.72;;
66830;SDS011;53739;44.224;22.528;2023-03-01T06:25:54;128.07;;;66.15;;
66830;SDS011;53739;44.224;22.528;2023-03-01T06:28:20;134.68;;;67.03;;
66830;SDS011;53739;44.224;22.528;2023-03-01T06:30:46;125.05;;;64.18;;
66830;SDS011;53739;44.224;22.528;2023-03-01T06:33:12;199.55;;;97.55;;
66830;SDS011;53739;44.224;22.528;2023-03-01T06:35:38;131.40;;;66.00;;
66830;SDS011;53739;44.224;22.528;2023-03-01T06:38:04;130.70;;;63.92;;
66830;SDS011;53739;44.224;22.528;2023-03-01T06:40:30;107.05;;;56.80;;
66830;SDS011;53739;44.224;22.528;2023-03-01T06:42:56;110.88;;;55.15;;
66830;SDS011;53739;44.224;22.528;2023-03-01T06:45:23;110.75;;;54.08;;
66830;SDS011;53739;44.224;22.528;2023-03-01T06:47:49;117.00;;;59.40;;
66830;SDS011;53739;44.224;22.528;2023-03-01T06:50:16;127.50;;;62.17;;
66830;SDS011;53739;44.224;22.528;2023-03-01T06:52:42;132.32;;;64.28;;
66830;SDS011;53739;44.224;22.528;2023-03-01T06:55:10;122.50;;;63.08;;
66830;SDS011;53739;44.224;22.528;2023-03-01T06:57:37;122.80;;;64.18;;
66830;SDS011;53739;44.224;22.528;2023-03-01T07:00:03;108.47;;;56.85;;
66830;SDS011;53739;44.224;22.528;2023-03-01T07:02:30;195.93;;;102.13;;
66830;SDS011;53739;44.224;22.528;2023-03-01T07:04:55;131.18;;;68.40;;
66830;SDS011;53739;44.224;22.528;2023-03-01T07:07:21;134.70;;;78.18;;
66830;SDS011;53739;44.224;22.528;2023-03-01T07:09:48;177.63;;;115.55;;
66830;SDS011;53739;44.224;22.528;2023-03-01T07:12:14;127.82;;;75.65;;
66830;SDS011;53739;44.224;22.528;2023-03-01T07:14:40;110.15;;;59.40;;
66830;SDS011;53739;44.224;22.528;2023-03-01T07:17:06;106.28;;;53.72;;
66830;SDS011;53739;44.224;22.528;2023-03-01T07:19:32;114.85;;;57.65;;
66830;SDS011;53739;44.224;22.528;2023-03-01T07:21:58;100.95;;;54.22;;
66830;SDS011;53739;44.224;22.528;2023-03-01T07:24:23;83.28;;;49.28;;
66830;SDS011;53739;44.224;22.528;2023-03-01T07:26:49;84.03;;;47.55;;
66830;SDS011;53739;44.224;22.528;2023-03-01T07:29:16;84.80;;;46.80;;
66830;SDS011;53739;44.224;22.528;2023-03-01T07:31:42;84.15;;;46.78;;
66830;SDS011;53739;44.224;22.528;2023-03-01T07:34:07;91.50;;;48.63;;
66830;SDS011;53739;44.224;22.528;2023-03-01T07:36:33;91.55;;;52.20;;
66830;SDS011;53739;44.224;22.528;2023-03-01T07:38:59;94.00;;;51.78;;
66830;SDS011;53739;44.224;22.528;2023-03-01T07:41:27;88.30;;;52.13;;
66830;SDS011;53739;44.224;22.528;2023-03-01T07:43:53;83.43;;;47.60;;
66830;SDS011;53739;44.224;22.528;2023-03-01T07:46:19;89.03;;;52.13;;
66830;SDS011;53739;44.224;22.528;2023-03-01T07:48:45;83.38;;;49.35;;
66830;SDS011;53739;44.224;22.528;2023-03-01T07:51:11;103.78;;;56.65;;
66830;SDS011;53739;44.224;22.528;2023-03-01T07:53:37;99.78;;;58.70;;
66830;SDS011;53739;44.224;22.528;2023-03-01T07:56:10;94.22;;;53.22;;
66830;SDS011;53739;44.224;22.528;2023-03-01T07:58:37;95.50;;;55.00;;
66830;SDS011;53739;44.224;22.528;2023-03-01T08:01:06;92.25;;;53.88;;
66830;SDS011;53739;44.224;22.528;2023-03-01T08:03:33;80.57;;;49.33;;
66830;SDS011;53739;44.224;22.528;2023-03-01T08:06:00;84.18;;;51.92;;
66830;SDS011;53739;44.224;22.528;2023-03-01T08:08:27;78.38;;;48.50;;
66830;SDS011;53739;44.224;22.528;2023-03-01T08:10:56;91.20;;;53.50;;
66830;SDS011;53739;44.224;22.528;2023-03-01T08:13:22;78.78;;;50.97;;
66830;SDS011;53739;44.224;22.528;2023-03-01T08:15:49;75.13;;;48.03;;
66830;SDS011;53739;44.224;22.528;2023-03-01T08:18:15;84.55;;;48.70;;
66830;SDS011;53739;44.224;22.528;2023-03-01T08:20:44;75.57;;;47.05;;
66830;SDS011;53739;44.224;22.528;2023-03-01T08:23:11;85.45;;;51.22;;
66830;SDS011;53739;44.224;22.528;2023-03-01T08:25:37;100.60;;;57.17;;
66830;SDS011;53739;44.224;22.528;2023-03-01T08:28:03;88.88;;;52.90;;
66830;SDS011;53739;44.224;22.528;2023-03-01T08:30:29;88.38;;;51.65;;
66830;SDS011;53739;44.224;22.528;2023-03-01T08:32:54;84.88;;;50.53;;
66830;SDS011;53739;44.224;22.528;2023-03-01T08:35:20;94.35;;;56.58;;
66830;SDS011;53739;44.224;22.528;2023-03-01T08:37:46;105.20;;;62.72;;
66830;SDS011;53739;44.224;22.528;2023-03-01T08:40:12;113.80;;;68.68;;
66830;SDS011;53739;44.224;22.528;2023-03-01T08:42:38;95.20;;;56.85;;
66830;SDS011;53739;44.224;22.528;2023-03-01T08:45:05;85.60;;;53.05;;
66830;SDS011;53739;44.224;22.528;2023-03-01T08:47:32;90.68;;;53.67;;
66830;SDS011;53739;44.224;22.528;2023-03-01T08:49:58;83.93;;;51.05;;
66830;SDS011;53739;44.224;22.528;2023-03-01T08:52:25;99.63;;;59.38;;
66830;SDS011;53739;44.224;22.528;2023-03-01T08:54:51;85.68;;;48.92;;
66830;SDS011;53739;44.224;22.528;2023-03-01T08:57:18;78.15;;;47.20;;
66830;SDS011;53739;44.224;22.528;2023-03-01T08:59:44;85.38;;;48.22;;
66830;SDS011;53739;44.224;22.528;2023-03-01T09:02:13;81.68;;;47.45;;
66830;SDS011;53739;44.224;22.528;2023-03-01T09:04:41;91.93;;;49.75;;
66830;SDS011;53739;44.224;22.528;2023-03-01T09:07:07;88.60;;;52.80;;
66830;SDS011;53739;44.224;22.528;2023-03-01T09:09:34;95.35;;;59.30;;
66830;SDS011;53739;44.224;22.528;2023-03-01T09:12:00;105.43;;;59.38;;
66830;SDS011;53739;44.224;22.528;2023-03-01T09:14:27;100.80;;;59.25;;
66830;SDS011;53739;44.224;22.528;2023-03-01T09:16:53;73.90;;;44.65;;
66830;SDS011;53739;44.224;22.528;2023-03-01T09:19:19;79.65;;;46.10;;
66830;SDS011;53739;44.224;22.528;2023-03-01T09:21:44;83.97;;;49.40;;
66830;SDS011;53739;44.224;22.528;2023-03-01T09:24:17;98.72;;;57.40;;
66830;SDS011;53739;44.224;22.528;2023-03-01T09:26:45;88.20;;;52.33;;
66830;SDS011;53739;44.224;22.528;2023-03-01T09:29:11;80.47;;;48.13;;
66830;SDS011;53739;44.224;22.528;2023-03-01T09:31:38;88.22;;;52.45;;
66830;SDS011;53739;44.224;22.528;2023-03-01T09:34:04;87.03;;;52.88;;
66830;SDS011;53739;44.224;22.528;2023-03-01T09:36:30;72.13;;;45.95;;
66830;SDS011;53739;44.224;22.528;2023-03-01T09:38:57;86.70;;;53.75;;
66830;SDS011;53739;44.224;22.528;2023-03-01T09:47:25;78.30;;;53.13;;
66830;SDS011;53739;44.224;22.528;2023-03-01T09:49:57;67.88;;;47.42;;
66830;SDS011;53739;44.224;22.528;2023-03-01T09:52:34;82.30;;;52.00;;
66830;SDS011;53739;44.224;22.528;2023-03-01T09:55:17;85.70;;;56.15;;
66830;SDS011;53739;44.224;22.528;2023-03-01T09:57:55;78.82;;;52.90;;
66830;SDS011;53739;44.224;22.528;2023-03-01T10:00:46;64.35;;;40.65;;
66830;SDS011;53739;44.224;22.528;2023-03-01T10:11:19;67.03;;;39.40;;
66830;SDS011;53739;44.224;22.528;2023-03-01T10:13:59;71.38;;;44.13;;
66830;SDS011;53739;44.224;22.528;2023-03-01T10:16:28;66.13;;;45.03;;
66830;SDS011;53739;44.224;22.528;2023-03-01T10:19:24;63.17;;;41.47;;
66830;SDS011;53739;44.224;22.528;2023-03-01T10:21:57;66.55;;;43.50;;
66830;SDS011;53739;44.224;22.528;2023-03-01T10:24:36;63.88;;;38.85;;
66830;SDS011;53739;44.224;22.528;2023-03-01T10:32:26;72.60;;;42.17;;
66830;SDS011;53739;44.224;22.528;2023-03-01T10:34:51;67.45;;;43.17;;
66830;SDS011;53739;44.224;22.528;2023-03-01T10:37:18;56.78;;;36.25;;
66830;SDS011;53739;44.224;22.528;2023-03-01T10:42:35;69.60;;;43.17;;
66830;SDS011;53739;44.224;22.528;2023-03-01T10:45:17;71.60;;;44.13;;
66830;SDS011;53739;44.224;22.528;2023-03-01T10:48:11;67.57;;;41.55;;
66830;SDS011;53739;44.224;22.528;2023-03-01T10:50:42;71.85;;;44.03;;
66830;SDS011;53739;44.224;22.528;2023-03-01T10:55:56;76.75;;;49.03;;
66830;SDS011;53739;44.224;22.528;2023-03-01T11:01:31;61.42;;;40.20;;
66830;SDS011;53739;44.224;22.528;2023-03-01T11:06:32;72.57;;;43.20;;
66830;SDS011;53739;44.224;22.528;2023-03-01T11:09:12;80.60;;;52.17;;
66830;SDS011;53739;44.224;22.528;2023-03-01T11:11:53;86.22;;;50.13;;
66830;SDS011;53739;44.224;22.528;2023-03-01T11:14:24;83.78;;;47.15;;
66830;SDS011;53739;44.224;22.528;2023-03-01T11:17:01;103.32;;;62.47;;
66830;SDS011;53739;44.224;22.528;2023-03-01T11:20:18;89.25;;;54.90;;
66830;SDS011;53739;44.224;22.528;2023-03-01T11:23:04;79.35;;;47.75;;
66830;SDS011;53739;44.224;22.528;2023-03-01T11:25:35;70.78;;;40.83;;
66830;SDS011;53739;44.224;22.528;2023-03-01T11:28:05;116.63;;;76.82;;
66830;SDS011;53739;44.224;22.528;2023-03-01T11:30:50;81.30;;;50.97;;
66830;SDS011;53739;44.224;22.528;2023-03-01T11:33:29;80.10;;;46.85;;
66830;SDS011;53739;44.224;22.528;2023-03-01T11:39:15;119.07;;;75.90;;
66830;SDS011;53739;44.224;22.528;2023-03-01T11:41:52;89.93;;;57.13;;
66830;SDS011;53739;44.224;22.528;2023-03-01T11:44:37;86.72;;;54.65;;
66830;SDS011;53739;44.224;22.528;2023-03-01T11:49:54;98.00;;;57.17;;
66830;SDS011;53739;44.224;22.528;2023-03-01T11:55:07;107.95;;;67.95;;
66830;SDS011;53739;44.224;22.528;2023-03-01T11:57:47;88.32;;;54.55;;
66830;SDS011;53739;44.224;22.528;2023-03-01T12:05:47;78.57;;;49.17;;
66830;SDS011;53739;44.224;22.528;2023-03-01T12:30:27;91.18;;;57.05;;
66830;SDS011;53739;44.224;22.528;2023-03-01T12:38:44;80.13;;;51.75;;
66830;SDS011;53739;44.224;22.528;2023-03-01T12:44:15;75.68;;;47.25;;
66830;SDS011;53739;44.224;22.528;2023-03-01T12:49:13;83.88;;;53.35;;
66830;SDS011;53739;44.224;22.528;2023-03-01T12:51:40;75.80;;;49.53;;
66830;SDS011;53739;44.224;22.528;2023-03-01T12:54:22;87.85;;;54.72;;
66830;SDS011;53739;44.224;22.528;2023-03-01T12:56:53;92.18;;;56.53;;
66830;SDS011;53739;44.224;22.528;2023-03-01T12:59:26;149.93;;;74.80;;
66830;SDS011;53739;44.224;22.528;2023-03-01T13:02:13;91.53;;;50.42;;
66830;SDS011;53739;44.224;22.528;2023-03-01T13:07:25;80.47;;;50.10;;
66830;SDS011;53739;44.224;22.528;2023-03-01T13:13:21;81.78;;;47.30;;
66830;SDS011;53739;44.224;22.528;2023-03-01T13:15:47;80.72;;;48.10;;
66830;SDS011;53739;44.224;22.528;2023-03-01T13:31:02;84.50;;;50.17;;
66830;SDS011;53739;44.224;22.528;2023-03-01T13:44:13;96.95;;;61.03;;
66830;SDS011;53739;44.224;22.528;2023-03-01T13:49:32;120.65;;;72.15;;
66830;SDS011;53739;44.224;22.528;2023-03-01T13:55:14;99.65;;;66.75;;
66830;SDS011;53739;44.224;22.528;2023-03-01T13:57:49;82.72;;;50.75;;
66830;SDS011;53739;44.224;22.528;2023-03-01T14:03:08;93.18;;;57.47;;
66830;SDS011;53739;44.224;22.528;2023-03-01T14:05:57;97.53;;;58.42;;
66830;SDS011;53739;44.224;22.528;2023-03-01T14:08:27;90.95;;;52.78;;
66830;SDS011;53739;44.224;22.528;2023-03-01T14:19:55;93.95;;;57.97;;
66830;SDS011;53739;44.224;22.528;2023-03-01T14:22:23;94.93;;;58.67;;
66830;SDS011;53739;44.224;22.528;2023-03-01T14:24:58;96.38;;;60.45;;
66830;SDS011;53739;44.224;22.528;2023-03-01T14:27:29;119.32;;;70.07;;
66830;SDS011;53739;44.224;22.528;2023-03-01T14:30:00;117.40;;;69.05;;
66830;SDS011;53739;44.224;22.528;2023-03-01T14:32:30;125.70;;;70.05;;
66830;SDS011;53739;44.224;22.528;2023-03-01T14:34:58;122.05;;;67.75;;
66830;SDS011;53739;44.224;22.528;2023-03-01T14:37:26;106.70;;;60.97;;
66830;SDS011;53739;44.224;22.528;2023-03-01T14:39:52;111.40;;;58.47;;
66830;SDS011;53739;44.224;22.528;2023-03-01T14:42:22;124.38;;;66.15;;
66830;SDS011;53739;44.224;22.528;2023-03-01T14:44:52;115.18;;;62.05;;
66830;SDS011;53739;44.224;22.528;2023-03-01T14:47:32;111.32;;;60.70;;
66830;SDS011;53739;44.224;22.528;2023-03-01T14:50:14;109.20;;;60.58;;
66830;SDS011;53739;44.224;22.528;2023-03-01T14:52:41;107.80;;;64.40;;
66830;SDS011;53739;44.224;22.528;2023-03-01T14:55:15;96.80;;;58.10;;
66830;SDS011;53739;44.224;22.528;2023-03-01T15:00:10;80.05;;;52.33;;
66830;SDS011;53739;44.224;22.528;2023-03-01T15:02:50;89.95;;;57.88;;
66830;SDS011;53739;44.224;22.528;2023-03-01T15:05:19;89.90;;;59.28;;
66830;SDS011;53739;44.224;22.528;2023-03-01T15:07:53;103.13;;;64.43;;
66830;SDS011;53739;44.224;22.528;2023-03-01T15:10:25;102.22;;;62.83;;
66830;SDS011;53739;44.224;22.528;2023-03-01T15:12:56;142.70;;;84.88;;
66830;SDS011;53739;44.224;22.528;2023-03-01T15:15:35;145.45;;;86.65;;
66830;SDS011;53739;44.224;22.528;2023-03-01T15:18:18;127.45;;;77.90;;
66830;SDS011;53739;44.224;22.528;2023-03-01T15:20:44;133.57;;;86.65;;
66830;SDS011;53739;44.224;22.528;2023-03-01T15:23:20;119.60;;;71.88;;
66830;SDS011;53739;44.224;22.528;2023-03-01T15:25:51;118.65;;;73.13;;
66830;SDS011;53739;44.224;22.528;2023-03-01T15:28:30;133.20;;;84.90;;
66830;SDS011;53739;44.224;22.528;2023-03-01T15:33:46;123.28;;;75.40;;
66830;SDS011;53739;44.224;22.528;2023-03-01T15:36:30;178.63;;;106.80;;
66830;SDS011;53739;44.224;22.528;2023-03-01T15:39:23;140.13;;;84.87;;
66830;SDS011;53739;44.224;22.528;2023-03-01T15:41:55;129.45;;;78.85;;
66830;SDS011;53739;44.224;22.528;2023-03-01T15:46:55;151.35;;;88.93;;
66830;SDS011;53739;44.224;22.528;2023-03-01T15:49:38;136.48;;;83.05;;
66830;SDS011;53739;44.224;22.528;2023-03-01T15:54:46;126.53;;;76.20;;
66830;SDS011;53739;44.224;22.528;2023-03-01T15:57:13;125.40;;;71.68;;
66830;SDS011;53739;44.224;22.528;2023-03-01T15:59:40;141.70;;;82.50;;
66830;SDS011;53739;44.224;22.528;2023-03-01T16:02:10;164.45;;;91.82;;
66830;SDS011;53739;44.224;22.528;2023-03-01T16:04:37;150.00;;;86.65;;
66830;SDS011;53739;44.224;22.528;2023-03-01T16:07:04;151.15;;;90.70;;
66830;SDS011;53739;44.224;22.528;2023-03-01T16:09:30;156.82;;;90.15;;
66830;SDS011;53739;44.224;22.528;2023-03-01T16:11:57;140.07;;;80.95;;
66830;SDS011;53739;44.224;22.528;2023-03-01T16:14:23;127.53;;;76.05;;
66830;SDS011;53739;44.224;22.528;2023-03-01T16:16:49;109.45;;;68.28;;
66830;SDS011;53739;44.224;22.528;2023-03-01T16:19:15;122.82;;;73.57;;
66830;SDS011;53739;44.224;22.528;2023-03-01T16:21:41;124.25;;;74.75;;
66830;SDS011;53739;44.224;22.528;2023-03-01T16:24:08;137.10;;;77.13;;
66830;SDS011;53739;44.224;22.528;2023-03-01T16:26:35;115.85;;;63.92;;
66830;SDS011;53739;44.224;22.528;2023-03-01T16:29:02;116.93;;;65.10;;
66830;SDS011;53739;44.224;22.528;2023-03-01T16:31:28;133.35;;;69.78;;
66830;SDS011;53739;44.224;22.528;2023-03-01T16:33:54;134.60;;;72.45;;
66830;SDS011;53739;44.224;22.528;2023-03-01T16:36:21;137.93;;;74.10;;
66830;SDS011;53739;44.224;22.528;2023-03-01T16:38:53;119.13;;;66.75;;
66830;SDS011;53739;44.224;22.528;2023-03-01T16:41:20;113.70;;;63.17;;
66830;SDS011;53739;44.224;22.528;2023-03-01T16:43:47;129.68;;;74.78;;
66830;SDS011;53739;44.224;22.528;2023-03-01T16:46:17;113.88;;;68.78;;
66830;SDS011;53739;44.224;22.528;2023-03-01T16:48:45;118.80;;;71.32;;